logo
Search for airport 
image banner adimage banner adimage banner ad
image banner ad

EDLB - Borkenberge

Located in Duelmen, Germany

ICAO - EDLB, IATA -

Data provided by Airmate  

General information

Coordinates: N51°46'49" E7°17'25"
Elevation is 158 feet MSL.
Magnetic variation is 2.0000° East
View others Airports in North Rhine-Westphalia

Operational data

Special qualification required
Current time UTC:
Current local time:
Weather at : EDLW - Dortmund ( 37 km )
METAR: EDLW 231650Z 18013KT 9999 FEW036 07/02 Q0993
TAF: TAF EDLW 231100Z 2312/2412 20020G30KT 9999 BKN040 BECMG 2314/2317 18007KT PROB30 TEMPO 2410/2412 21015G25KT SHRAGS BKN030TCU
View NOTAMs / SUP AIP / TFR affecting this airport [VIEW]
Communications frequencies: [VIEW]

Runways:

RWY identifierQFULength (ft)Width (ft)SurfaceLDA (ft)
0775°287149ASPH2365
25255°287149ASPH2031

Airport contact information

Address: Duelmen Germany

Satellite view of EDLB